createdAt,value
2019-01-18T00:00:40.065Z,0.20
2019-01-18T00:03:09.045Z,0.20
2019-01-18T00:05:38.100Z,0.20
2019-01-18T00:08:07.070Z,0.10
2019-01-18T00:10:35.948Z,0.10
2019-01-18T00:13:05.321Z,0.00
2019-01-18T00:15:34.283Z,0.00
2019-01-18T00:18:03.193Z,0.00
2019-01-18T00:20:32.085Z,-0.10
2019-01-18T00:23:01.078Z,-0.10
2019-01-18T00:25:29.939Z,-0.10
2019-01-18T00:27:58.876Z,-0.10
2019-01-18T00:30:27.940Z,-0.10
2019-01-18T00:32:56.769Z,-0.10
2019-01-18T00:35:25.833Z,-0.10
2019-01-18T00:37:54.673Z,-0.20
2019-01-18T00:40:23.748Z,-0.10
2019-01-18T00:42:52.656Z,-0.10
2019-01-18T00:45:21.671Z,-0.10
2019-01-18T00:47:50.616Z,-0.10
2019-01-18T00:50:19.606Z,-0.10
2019-01-18T00:52:48.689Z,-0.10
2019-01-18T00:55:17.685Z,-0.10
2019-01-18T00:57:46.667Z,-0.10
2019-01-18T01:00:18.556Z,-0.10
2019-01-18T01:02:47.542Z,0.00
2019-01-18T01:05:17.315Z,0.10
2019-01-18T01:07:46.220Z,0.10
2019-01-18T01:10:15.334Z,0.20
2019-01-18T01:12:44.296Z,0.20
2019-01-18T01:15:15.779Z,0.30
2019-01-18T01:17:44.953Z,0.30
2019-01-18T01:20:15.289Z,0.30
2019-01-18T01:22:44.263Z,0.30
2019-01-18T01:25:13.353Z,0.30
2019-01-18T01:27:42.596Z,0.30
2019-01-18T01:30:14.916Z,0.40
2019-01-18T01:32:43.984Z,0.40
2019-01-18T01:35:13.075Z,0.40
2019-01-18T01:37:42.092Z,0.40
2019-01-18T01:40:22.580Z,0.40
2019-01-18T01:42:51.548Z,0.40
2019-01-18T01:45:20.625Z,0.40
2019-01-18T01:47:49.597Z,0.40
2019-01-18T01:50:20.523Z,0.40
2019-01-18T01:52:49.409Z,0.40
2019-01-18T01:55:18.784Z,0.40
2019-01-18T01:57:47.759Z,0.30
2019-01-18T02:00:21.848Z,0.30
2019-01-18T02:02:50.820Z,0.30
2019-01-18T02:05:19.894Z,0.30
2019-01-18T02:07:48.792Z,0.30
2019-01-18T02:10:18.300Z,0.20
2019-01-18T02:12:47.589Z,0.20
2019-01-18T02:15:18.848Z,0.20
2019-01-18T02:17:47.824Z,0.10
2019-01-18T02:20:18.454Z,0.10
2019-01-18T02:22:47.447Z,0.10
2019-01-18T02:25:16.421Z,0.20
2019-01-18T02:27:45.977Z,0.20
2019-01-18T02:30:21.589Z,0.20
2019-01-18T02:32:50.618Z,0.20
2019-01-18T02:35:19.641Z,0.20
2019-01-18T02:37:48.639Z,0.20
2019-01-18T02:40:17.672Z,0.20
2019-01-18T02:42:46.687Z,0.30
2019-01-18T02:45:17.716Z,0.30
2019-01-18T02:47:49.626Z,0.30
2019-01-18T02:50:21.823Z,0.30
2019-01-18T02:52:50.821Z,0.30
2019-01-18T02:55:19.821Z,0.30
2019-01-18T02:57:48.761Z,0.30
2019-01-18T03:00:22.704Z,0.30
2019-01-18T03:02:51.923Z,0.40
2019-01-18T03:05:23.284Z,0.40
2019-01-18T03:07:52.327Z,0.30
2019-01-18T03:10:27.203Z,0.30
2019-01-18T03:12:56.217Z,0.30
2019-01-18T03:15:25.304Z,0.30
2019-01-18T03:17:54.387Z,0.30
2019-01-18T03:20:23.406Z,0.30
2019-01-18T03:22:52.313Z,0.30
2019-01-18T03:25:26.639Z,0.30
2019-01-18T03:27:55.617Z,0.30
2019-01-18T03:30:24.619Z,0.20
2019-01-18T03:32:53.557Z,0.20
2019-01-18T03:35:23.264Z,0.20
2019-01-18T03:37:52.399Z,0.20
2019-01-18T03:40:21.611Z,0.20
2019-01-18T03:42:51.337Z,0.10
2019-01-18T03:45:20.670Z,0.10
2019-01-18T03:47:49.767Z,0.10
2019-01-18T03:50:20.873Z,0.20
2019-01-18T03:52:49.862Z,0.10
2019-01-18T03:55:18.963Z,0.20
2019-01-18T03:57:47.985Z,0.30
2019-01-18T04:00:25.846Z,0.20
2019-01-18T04:02:49.727Z,0.20
2019-01-18T04:05:18.735Z,0.10
2019-01-18T04:07:47.732Z,0.10
2019-01-18T04:10:18.158Z,0.10
2019-01-18T04:12:47.177Z,0.10
2019-01-18T04:15:17.568Z,0.10
2019-01-18T04:17:46.558Z,0.10
2019-01-18T04:20:16.676Z,0.10
2019-01-18T04:22:45.925Z,0.10
2019-01-18T04:25:18.240Z,0.10
2019-01-18T04:27:47.304Z,0.10
2019-01-18T04:30:18.225Z,0.10
2019-01-18T04:32:47.152Z,0.10
2019-01-18T04:35:16.170Z,0.10
2019-01-18T04:37:45.197Z,0.10
2019-01-18T04:40:17.002Z,0.10
2019-01-18T04:42:46.065Z,0.10
2019-01-18T04:45:15.080Z,0.10
2019-01-18T04:47:44.072Z,0.10
2019-01-18T04:50:15.398Z,0.10
2019-01-18T04:52:44.488Z,0.10
2019-01-18T04:55:13.609Z,0.10
2019-01-18T04:57:42.502Z,0.10
2019-01-18T05:00:15.091Z,0.10
2019-01-18T05:02:44.039Z,0.20
2019-01-18T05:05:13.041Z,0.20
2019-01-18T05:07:41.971Z,0.10
2019-01-18T05:10:12.293Z,0.10
2019-01-18T05:12:41.288Z,0.10
2019-01-18T05:15:12.828Z,0.20
2019-01-18T05:17:41.754Z,0.20
2019-01-18T05:20:11.136Z,0.20
2019-01-18T05:22:40.124Z,0.20
2019-01-18T05:25:10.650Z,0.20
2019-01-18T05:27:39.644Z,0.10
2019-01-18T05:30:21.341Z,0.10
2019-01-18T05:32:50.423Z,0.10
2019-01-18T05:35:19.465Z,0.10
2019-01-18T05:37:48.449Z,0.10
2019-01-18T05:40:18.320Z,0.10
2019-01-18T05:42:47.735Z,0.10
2019-01-18T05:45:18.245Z,0.10
2019-01-18T05:47:47.183Z,0.10
2019-01-18T05:50:18.299Z,0.10
2019-01-18T05:52:50.392Z,0.10
2019-01-18T05:55:19.407Z,0.10
2019-01-18T05:57:48.399Z,0.20
2019-01-18T06:00:40.462Z,0.10
2019-01-18T06:03:09.541Z,0.10
2019-01-18T06:05:43.360Z,0.10
2019-01-18T06:08:12.431Z,0.10
2019-01-18T06:10:41.465Z,0.10
2019-01-18T06:13:10.640Z,0.10
2019-01-18T06:15:40.588Z,0.10
2019-01-18T06:18:09.633Z,0.10
2019-01-18T06:20:38.635Z,0.10
2019-01-18T06:23:07.645Z,0.00
2019-01-18T06:25:36.746Z,0.00
2019-01-18T06:28:05.834Z,0.00
2019-01-18T06:30:34.824Z,-0.10
2019-01-18T06:33:03.831Z,-0.10
2019-01-18T06:35:32.845Z,-0.20
2019-01-18T06:38:08.166Z,-0.20
2019-01-18T06:40:37.105Z,-0.20
2019-01-18T06:43:06.096Z,-0.20
2019-01-18T06:45:35.188Z,-0.20
2019-01-18T06:48:04.346Z,-0.20
2019-01-18T06:50:33.445Z,-0.20
2019-01-18T06:53:02.450Z,-0.30
2019-01-18T06:55:31.365Z,-0.30
2019-01-18T06:58:00.404Z,-0.40
2019-01-18T07:00:31.545Z,-0.40
2019-01-18T07:03:03.761Z,-0.40
2019-01-18T07:05:32.782Z,-0.30
2019-01-18T07:08:01.693Z,-0.30
2019-01-18T07:10:30.765Z,-0.30
2019-01-18T07:12:59.689Z,-0.30
2019-01-18T07:15:28.671Z,-0.30
2019-01-18T07:17:57.675Z,-0.30
2019-01-18T07:20:26.709Z,-0.30
2019-01-18T07:22:55.722Z,-0.40
2019-01-18T07:25:26.877Z,-0.40
2019-01-18T07:27:55.820Z,-0.50
2019-01-18T07:30:39.256Z,-0.60
2019-01-18T07:33:10.685Z,-0.60
2019-01-18T07:35:39.990Z,-0.60
2019-01-18T07:38:09.121Z,-0.50
2019-01-18T07:40:38.126Z,-0.50
2019-01-18T07:43:07.146Z,-0.50
2019-01-18T07:45:36.281Z,-0.40
2019-01-18T07:48:05.605Z,-0.50
2019-01-18T07:50:34.577Z,-0.50
2019-01-18T07:53:03.581Z,-0.40
2019-01-18T07:55:32.521Z,-0.30
2019-01-18T07:58:01.556Z,0.10
2019-01-18T08:00:30.966Z,0.80
2019-01-18T08:03:00.022Z,1.60
2019-01-18T08:05:31.119Z,2.10
2019-01-18T08:08:00.240Z,2.80
2019-01-18T08:10:29.294Z,3.50
2019-01-18T08:12:58.285Z,4.00
2019-01-18T08:15:28.512Z,4.00
2019-01-18T08:17:57.814Z,4.20
2019-01-18T08:20:28.250Z,4.60
2019-01-18T08:22:57.601Z,4.90
2019-01-18T08:25:26.653Z,5.50
2019-01-18T08:27:55.696Z,6.30
2019-01-18T08:30:26.460Z,6.80
2019-01-18T08:32:55.433Z,7.40
2019-01-18T08:35:25.172Z,7.50
2019-01-18T08:37:54.153Z,7.40
2019-01-18T08:40:25.658Z,6.50
2019-01-18T08:42:54.641Z,5.80
2019-01-18T08:45:26.429Z,5.60
2019-01-18T08:47:55.402Z,6.20
2019-01-18T08:50:24.475Z,7.20
2019-01-18T08:52:53.458Z,8.10
2019-01-18T08:55:22.454Z,8.80
2019-01-18T08:57:51.473Z,8.80
2019-01-18T09:00:22.167Z,7.30
2019-01-18T09:02:51.092Z,6.40
2019-01-18T09:05:22.270Z,5.30
2019-01-18T09:07:51.287Z,4.50
2019-01-18T09:10:21.161Z,3.90
2019-01-18T09:12:50.153Z,3.50
2019-01-18T09:15:19.117Z,3.20
2019-01-18T09:17:48.211Z,3.00
2019-01-18T09:20:23.701Z,2.70
2019-01-18T09:23:09.296Z,2.50
2019-01-18T09:25:38.610Z,2.40
2019-01-18T09:28:07.579Z,2.50
2019-01-18T09:30:36.669Z,2.60
2019-01-18T09:33:08.055Z,3.20
2019-01-18T09:35:37.761Z,3.80
2019-01-18T09:38:09.812Z,3.90
2019-01-18T09:40:38.892Z,3.80
2019-01-18T09:43:07.989Z,3.60
2019-01-18T09:45:37.005Z,3.50
2019-01-18T09:48:08.297Z,3.30
2019-01-18T09:50:37.320Z,3.10
2019-01-18T09:53:07.967Z,2.80
2019-01-18T09:55:37.037Z,2.70
2019-01-18T09:58:06.159Z,2.50
2019-01-18T10:00:38.056Z,2.40
2019-01-18T10:03:07.095Z,2.30
2019-01-18T10:05:36.111Z,2.10
2019-01-18T10:08:07.141Z,1.90
2019-01-18T10:10:36.169Z,1.80
2019-01-18T10:13:05.184Z,1.70
2019-01-18T10:15:39.722Z,1.70
2019-01-18T10:18:08.718Z,1.70
2019-01-18T10:20:37.773Z,1.70
2019-01-18T10:23:06.773Z,1.60
2019-01-18T10:25:35.729Z,1.70
2019-01-18T10:28:04.852Z,1.70
2019-01-18T10:30:35.110Z,1.80
2019-01-18T10:33:04.301Z,1.80
2019-01-18T10:35:33.234Z,1.90
2019-01-18T10:38:02.182Z,2.10
2019-01-18T10:40:31.315Z,2.30
2019-01-18T10:43:00.346Z,2.60
2019-01-18T10:45:29.385Z,2.80
2019-01-18T10:47:59.961Z,3.10
2019-01-18T10:50:31.173Z,3.30
2019-01-18T10:53:00.646Z,3.40
2019-01-18T10:55:29.661Z,3.40
2019-01-18T10:57:58.688Z,3.40
2019-01-18T11:00:33.516Z,3.30
2019-01-18T11:03:02.690Z,3.30
2019-01-18T11:05:31.768Z,3.30
2019-01-18T11:08:00.785Z,3.40
2019-01-18T11:10:29.770Z,3.40
2019-01-18T11:12:58.789Z,3.60
2019-01-18T11:15:29.794Z,3.60
2019-01-18T11:18:00.945Z,3.50
2019-01-18T11:20:33.232Z,3.40
2019-01-18T11:23:02.251Z,3.40
2019-01-18T11:25:31.946Z,3.40
2019-01-18T11:29:19.643Z,3.40
2019-01-18T11:34:48.921Z,3.40
2019-01-18T11:39:33.693Z,3.80
2019-01-18T11:42:05.312Z,4.20
2019-01-18T11:44:33.345Z,4.40
2019-01-18T11:47:02.360Z,4.60
2019-01-18T11:54:26.660Z,4.50
2019-01-18T11:56:56.553Z,4.50
2019-01-18T11:59:26.501Z,4.60
2019-01-18T12:01:56.380Z,4.80
2019-01-18T12:04:26.297Z,4.80
2019-01-18T12:06:56.088Z,4.80
2019-01-18T12:09:26.006Z,5.00
2019-01-18T12:11:55.836Z,5.00
2019-01-18T12:14:25.733Z,5.00
2019-01-18T12:16:55.669Z,4.90
2019-01-18T12:19:25.413Z,4.60
2019-01-18T12:21:55.277Z,4.90
2019-01-18T12:24:25.071Z,5.20
2019-01-18T12:26:54.889Z,5.40
2019-01-18T12:29:24.737Z,5.80
2019-01-18T12:31:54.625Z,6.50
2019-01-18T12:34:24.521Z,7.30
2019-01-18T12:36:58.967Z,8.30
2019-01-18T12:39:28.770Z,9.30
2019-01-18T12:41:58.570Z,10.10
2019-01-18T12:44:28.501Z,10.90
2019-01-18T12:46:58.404Z,12.00
2019-01-18T12:49:28.274Z,12.00
2019-01-18T12:51:58.161Z,11.30
2019-01-18T12:54:28.968Z,9.90
2019-01-18T12:56:58.905Z,8.90
2019-01-18T12:59:28.812Z,8.00
2019-01-18T13:01:58.691Z,7.10
2019-01-18T13:04:28.572Z,6.90
2019-01-18T13:06:58.317Z,7.70
2019-01-18T13:09:28.212Z,8.70
2019-01-18T13:11:58.093Z,8.60
2019-01-18T13:14:27.904Z,7.80
2019-01-18T13:16:57.765Z,7.40
2019-01-18T13:19:27.632Z,7.20
2019-01-18T13:21:57.415Z,7.20
2019-01-18T13:24:27.353Z,6.90
2019-01-18T13:26:57.224Z,6.40
2019-01-18T13:29:27.016Z,6.50
2019-01-18T13:31:56.887Z,6.70
2019-01-18T13:34:26.762Z,6.50
2019-01-18T13:36:56.625Z,6.50
2019-01-18T13:39:26.510Z,6.30
2019-01-18T13:41:56.389Z,6.10
2019-01-18T13:44:26.270Z,5.90
2019-01-18T13:46:56.059Z,5.70
2019-01-18T13:49:25.879Z,5.30
2019-01-18T13:51:55.755Z,5.00
2019-01-18T13:54:26.085Z,4.70
2019-01-18T13:56:56.025Z,4.40
2019-01-18T13:59:25.845Z,4.10
2019-01-18T14:01:55.742Z,3.90
2019-01-18T14:04:25.645Z,3.70
2019-01-18T14:06:55.444Z,3.50
2019-01-18T14:09:25.345Z,3.40
2019-01-18T14:11:55.869Z,3.40
2019-01-18T14:14:25.898Z,3.40
2019-01-18T14:16:55.814Z,3.30
2019-01-18T14:19:25.682Z,3.30
2019-01-18T14:21:55.614Z,3.20
2019-01-18T14:24:25.404Z,3.20
2019-01-18T14:26:55.291Z,3.20
2019-01-18T14:29:25.182Z,3.30
2019-01-18T14:31:54.997Z,3.30
2019-01-18T14:34:24.809Z,3.20
2019-01-18T14:36:54.711Z,3.30
2019-01-18T14:39:25.493Z,3.40
2019-01-18T14:41:55.392Z,3.50
2019-01-18T14:44:25.251Z,3.60
2019-01-18T14:46:55.273Z,3.60
2019-01-18T14:49:25.185Z,3.70
2019-01-18T14:51:55.066Z,3.70
2019-01-18T14:54:24.945Z,3.60
2019-01-18T14:56:54.740Z,3.70
2019-01-18T14:59:24.568Z,3.80
2019-01-18T15:01:54.476Z,3.80
2019-01-18T15:04:24.367Z,3.70
2019-01-18T15:06:54.237Z,3.50
2019-01-18T15:09:24.126Z,3.30
2019-01-18T15:11:54.002Z,3.20
2019-01-18T15:14:23.949Z,3.00
2019-01-18T15:16:53.769Z,2.80
2019-01-18T15:19:23.672Z,2.60
2019-01-18T15:21:53.573Z,2.40
2019-01-18T15:24:23.409Z,2.30
2019-01-18T15:26:53.390Z,2.10
2019-01-18T15:29:25.637Z,2.00
2019-01-18T15:31:55.541Z,1.80
2019-01-18T15:34:25.441Z,1.50
2019-01-18T15:36:55.354Z,1.50
2019-01-18T15:39:25.180Z,1.30
2019-01-18T15:41:55.011Z,1.10
2019-01-18T15:44:24.888Z,1.00
2019-01-18T15:46:54.753Z,0.90
2019-01-18T15:49:24.630Z,0.80
2019-01-18T15:51:54.593Z,0.60
2019-01-18T15:54:24.413Z,0.50
2019-01-18T15:56:54.332Z,0.40
2019-01-18T15:59:24.247Z,0.30
2019-01-18T16:01:54.084Z,0.10
2019-01-18T16:04:24.049Z,0.00
2019-01-18T16:06:53.880Z,-0.10
2019-01-18T16:09:23.690Z,-0.30
2019-01-18T16:11:53.645Z,-0.40
2019-01-18T16:14:25.423Z,-0.50
2019-01-18T16:17:03.703Z,-0.60
2019-01-18T16:19:33.571Z,-0.80
2019-01-18T16:22:03.471Z,-0.80
2019-01-18T16:24:33.326Z,-0.90
2019-01-18T16:27:03.245Z,-1.10
2019-01-18T16:29:33.137Z,-1.10
2019-01-18T16:32:02.951Z,-1.10
2019-01-18T16:34:32.832Z,-1.20
2019-01-18T16:37:02.737Z,-1.20
2019-01-18T16:39:32.957Z,-1.20
2019-01-18T16:42:02.988Z,-1.30
2019-01-18T16:44:32.881Z,-1.30
2019-01-18T16:47:02.866Z,-1.40
2019-01-18T16:49:32.721Z,-1.40
2019-01-18T16:52:02.546Z,-1.40
2019-01-18T16:54:32.448Z,-1.50
2019-01-18T16:57:04.752Z,-1.50
2019-01-18T16:59:34.581Z,-1.60
2019-01-18T17:02:04.600Z,-1.60
2019-01-18T17:04:34.620Z,-1.60
2019-01-18T17:07:04.562Z,-1.60
2019-01-18T17:09:34.445Z,-1.60
2019-01-18T17:12:04.340Z,-1.60
2019-01-18T17:14:34.206Z,-1.60
2019-01-18T17:17:04.185Z,-1.60
2019-01-18T17:19:33.997Z,-1.60
2019-01-18T17:22:03.989Z,-1.60
2019-01-18T17:24:33.890Z,-1.60
2019-01-18T17:27:03.899Z,-1.60
2019-01-18T17:29:33.839Z,-1.50
2019-01-18T17:32:03.760Z,-1.60
2019-01-18T17:34:33.713Z,-1.60
2019-01-18T17:37:13.439Z,-1.60
2019-01-18T17:40:08.664Z,-1.60
2019-01-18T17:43:21.656Z,-1.70
2019-01-18T17:46:23.621Z,-1.70
2019-01-18T17:49:22.914Z,-1.70
2019-01-18T17:52:29.109Z,-1.70
2019-01-18T17:55:31.890Z,-1.70
2019-01-18T17:58:32.205Z,-1.80
2019-01-18T18:01:32.060Z,-1.80
2019-01-18T18:04:58.624Z,-1.80
2019-01-18T18:08:08.303Z,-1.80
2019-01-18T18:11:18.432Z,-1.80
2019-01-18T18:14:07.412Z,-1.80
2019-01-18T18:17:05.910Z,-1.70
2019-01-18T18:20:50.342Z,-1.70
2019-01-18T18:23:48.348Z,-1.70
2019-01-18T18:26:31.696Z,-1.80
2019-01-18T18:29:21.569Z,-1.80
2019-01-18T18:32:39.697Z,-1.80
2019-01-18T18:35:44.660Z,-1.90
2019-01-18T18:38:37.876Z,-1.90
2019-01-18T18:41:38.246Z,-1.90
2019-01-18T18:44:33.197Z,-2.00
2019-01-18T18:47:59.205Z,-2.10
2019-01-18T18:51:25.232Z,-2.10
2019-01-18T18:54:24.045Z,-2.10
2019-01-18T18:57:22.137Z,-2.10
2019-01-18T19:00:17.927Z,-2.10
2019-01-18T19:03:28.559Z,-2.20
2019-01-18T19:07:04.021Z,-2.20
2019-01-18T19:09:51.291Z,-2.30
2019-01-18T19:13:01.308Z,-2.30
2019-01-18T19:16:03.268Z,-2.30
2019-01-18T19:19:04.875Z,-2.30
2019-01-18T19:21:57.209Z,-2.30
2019-01-18T19:25:20.378Z,-2.40
2019-01-18T19:28:27.444Z,-2.40
2019-01-18T19:31:33.926Z,-2.50
2019-01-18T19:34:47.972Z,-2.50
2019-01-18T19:38:00.869Z,-2.50
2019-01-18T19:40:36.322Z,-2.50
2019-01-18T19:43:32.388Z,-2.60
2019-01-18T19:46:31.049Z,-2.70
2019-01-18T19:49:37.191Z,-2.70
2019-01-18T19:52:44.148Z,-2.70
2019-01-18T19:55:57.013Z,-2.70
2019-01-18T19:58:54.570Z,-2.80
2019-01-18T20:01:43.422Z,-2.80
2019-01-18T20:04:53.324Z,-2.90
2019-01-18T20:07:53.912Z,-2.90
2019-01-18T20:11:06.771Z,-3.00
2019-01-18T20:14:06.461Z,-3.10
2019-01-18T20:17:17.647Z,-3.10
2019-01-18T20:20:15.559Z,-3.10
2019-01-18T20:23:12.928Z,-3.20
2019-01-18T20:26:29.907Z,-3.20
2019-01-18T20:29:32.502Z,-3.20
2019-01-18T20:32:29.399Z,-3.30
2019-01-18T20:35:43.899Z,-3.20
2019-01-18T20:38:30.175Z,-3.30
2019-01-18T20:41:50.865Z,-3.40
2019-01-18T20:44:56.936Z,-3.40
2019-01-18T20:48:06.829Z,-3.40
2019-01-18T20:51:03.634Z,-3.40
2019-01-18T20:54:08.417Z,-3.50
2019-01-18T20:57:11.328Z,-3.50
2019-01-18T21:00:40.637Z,-3.40
2019-01-18T21:03:40.497Z,-3.50
2019-01-18T21:06:46.741Z,-3.40
2019-01-18T21:09:38.163Z,-3.50
2019-01-18T21:12:43.884Z,-3.50
2019-01-18T21:15:35.805Z,-3.50
2019-01-18T21:18:16.637Z,-3.60
2019-01-18T21:21:33.614Z,-3.60
2019-01-18T21:24:56.084Z,-3.70
2019-01-18T21:28:01.805Z,-3.80
2019-01-18T21:31:20.343Z,-3.80
2019-01-18T21:34:10.471Z,-3.80
2019-01-18T21:37:04.521Z,-3.90
2019-01-18T21:40:00.753Z,-3.90
2019-01-18T21:43:19.812Z,-4.00
2019-01-18T21:46:22.206Z,-4.00
2019-01-18T21:49:40.417Z,-4.00
2019-01-18T21:52:49.326Z,-4.00
2019-01-18T21:55:59.198Z,-4.10
2019-01-18T21:59:01.490Z,-4.10
2019-01-18T22:01:56.952Z,-4.10
2019-01-18T22:04:51.239Z,-4.20
2019-01-18T22:07:35.911Z,-4.20
2019-01-18T22:11:02.081Z,-4.20
2019-01-18T22:13:43.476Z,-4.20
2019-01-18T22:16:45.571Z,-4.30
2019-01-18T22:20:05.378Z,-4.30
2019-01-18T22:22:57.678Z,-4.30
2019-01-18T22:25:57.617Z,-4.30
2019-01-18T22:29:05.485Z,-4.40
2019-01-18T22:32:17.902Z,-4.40
2019-01-18T22:35:24.317Z,-4.40
2019-01-18T22:38:18.589Z,-4.30
2019-01-18T22:41:28.569Z,-4.40
2019-01-18T22:44:34.655Z,-4.40
2019-01-18T22:47:31.105Z,-4.30
2019-01-18T22:50:35.148Z,-4.40
2019-01-18T22:53:46.607Z,-4.40
2019-01-18T22:57:00.196Z,-4.40
2019-01-18T23:00:31.005Z,-4.50
2019-01-18T23:03:28.265Z,-4.50
2019-01-18T23:06:37.589Z,-4.50
2019-01-18T23:09:35.696Z,-4.50
2019-01-18T23:12:58.956Z,-4.50
2019-01-18T23:16:23.879Z,-4.50
2019-01-18T23:19:27.089Z,-4.60
2019-01-18T23:22:25.641Z,-4.60
2019-01-18T23:25:15.374Z,-4.50
2019-01-18T23:28:50.565Z,-4.60
2019-01-18T23:31:42.178Z,-4.50
2019-01-18T23:34:40.246Z,-4.60
2019-01-18T23:37:18.924Z,-4.60
2019-01-18T23:40:17.576Z,-4.70
2019-01-18T23:43:01.456Z,-4.80
2019-01-18T23:46:09.649Z,-4.80
2019-01-18T23:49:10.742Z,-4.90
2019-01-18T23:52:01.800Z,-4.90
2019-01-18T23:55:40.488Z,-4.90
2019-01-18T23:58:45.805Z,-4.90
